sensor_id;sensor_type;location;lat;lon;timestamp;temperature;humidity
32524;DHT22;18965;52.242;20.886;2023-07-31T00:00:55;19.20;77.60
32524;DHT22;18965;52.242;20.886;2023-07-31T00:03:21;19.20;77.70
32524;DHT22;18965;52.242;20.886;2023-07-31T00:05:47;19.10;77.70
32524;DHT22;18965;52.242;20.886;2023-07-31T00:08:12;19.10;77.60
32524;DHT22;18965;52.242;20.886;2023-07-31T00:10:38;19.10;77.70
32524;DHT22;18965;52.242;20.886;2023-07-31T00:13:04;19.00;77.70
32524;DHT22;18965;52.242;20.886;2023-07-31T00:15:29;18.90;77.70
32524;DHT22;18965;52.242;20.886;2023-07-31T00:17:55;18.90;77.70
32524;DHT22;18965;52.242;20.886;2023-07-31T00:20:21;18.80;77.70
32524;DHT22;18965;52.242;20.886;2023-07-31T00:22:47;18.80;77.80
32524;DHT22;18965;52.242;20.886;2023-07-31T00:25:12;18.80;78.00
32524;DHT22;18965;52.242;20.886;2023-07-31T00:27:38;18.80;78.20
32524;DHT22;18965;52.242;20.886;2023-07-31T00:30:04;18.70;78.30
32524;DHT22;18965;52.242;20.886;2023-07-31T00:32:30;18.70;78.50
32524;DHT22;18965;52.242;20.886;2023-07-31T00:34:56;18.70;78.50
32524;DHT22;18965;52.242;20.886;2023-07-31T00:37:21;18.70;78.60
32524;DHT22;18965;52.242;20.886;2023-07-31T00:39:47;18.70;78.70
32524;DHT22;18965;52.242;20.886;2023-07-31T00:42:13;18.70;78.70
32524;DHT22;18965;52.242;20.886;2023-07-31T00:44:38;18.60;78.80
32524;DHT22;18965;52.242;20.886;2023-07-31T00:47:04;18.60;78.80
32524;DHT22;18965;52.242;20.886;2023-07-31T00:49:30;18.60;78.90
32524;DHT22;18965;52.242;20.886;2023-07-31T00:51:56;18.60;78.80
32524;DHT22;18965;52.242;20.886;2023-07-31T00:54:23;18.60;78.90
32524;DHT22;18965;52.242;20.886;2023-07-31T00:56:50;18.50;78.90
32524;DHT22;18965;52.242;20.886;2023-07-31T00:59:18;18.60;78.90
32524;DHT22;18965;52.242;20.886;2023-07-31T01:01:44;18.50;78.90
32524;DHT22;18965;52.242;20.886;2023-07-31T01:04:11;18.50;79.00
32524;DHT22;18965;52.242;20.886;2023-07-31T01:09:51;18.40;79.10
32524;DHT22;18965;52.242;20.886;2023-07-31T01:12:18;18.40;79.20
32524;DHT22;18965;52.242;20.886;2023-07-31T01:15:05;18.40;79.30
32524;DHT22;18965;52.242;20.886;2023-07-31T01:17:31;18.40;79.60
32524;DHT22;18965;52.242;20.886;2023-07-31T01:20:01;18.30;79.50
32524;DHT22;18965;52.242;20.886;2023-07-31T01:27:57;18.30;79.60
32524;DHT22;18965;52.242;20.886;2023-07-31T01:30:28;18.30;79.70
32524;DHT22;18965;52.242;20.886;2023-07-31T01:32:56;18.30;79.60
32524;DHT22;18965;52.242;20.886;2023-07-31T01:35:23;18.20;79.60
32524;DHT22;18965;52.242;20.886;2023-07-31T01:37:49;18.20;79.70
32524;DHT22;18965;52.242;20.886;2023-07-31T01:40:14;18.20;79.70
32524;DHT22;18965;52.242;20.886;2023-07-31T01:42:40;18.10;79.90
32524;DHT22;18965;52.242;20.886;2023-07-31T01:45:06;18.10;79.70
32524;DHT22;18965;52.242;20.886;2023-07-31T01:47:32;18.10;79.80
32524;DHT22;18965;52.242;20.886;2023-07-31T01:49:57;18.00;79.80
32524;DHT22;18965;52.242;20.886;2023-07-31T01:52:23;18.00;79.90
32524;DHT22;18965;52.242;20.886;2023-07-31T01:54:49;18.00;79.90
32524;DHT22;18965;52.242;20.886;2023-07-31T01:57:15;18.00;80.00
32524;DHT22;18965;52.242;20.886;2023-07-31T01:59:41;17.90;80.10
32524;DHT22;18965;52.242;20.886;2023-07-31T02:02:07;17.90;80.20
32524;DHT22;18965;52.242;20.886;2023-07-31T02:04:33;17.90;80.30
32524;DHT22;18965;52.242;20.886;2023-07-31T02:06:59;17.90;80.40
32524;DHT22;18965;52.242;20.886;2023-07-31T02:09:25;17.90;80.40
32524;DHT22;18965;52.242;20.886;2023-07-31T02:11:51;17.80;80.30
32524;DHT22;18965;52.242;20.886;2023-07-31T02:14:16;17.80;80.50
32524;DHT22;18965;52.242;20.886;2023-07-31T02:16:42;17.80;80.50
32524;DHT22;18965;52.242;20.886;2023-07-31T02:19:08;17.80;80.60
32524;DHT22;18965;52.242;20.886;2023-07-31T02:21:34;17.70;80.60
32524;DHT22;18965;52.242;20.886;2023-07-31T02:23:59;17.70;80.80
32524;DHT22;18965;52.242;20.886;2023-07-31T02:26:25;17.70;81.00
32524;DHT22;18965;52.242;20.886;2023-07-31T02:28:50;17.70;81.10
32524;DHT22;18965;52.242;20.886;2023-07-31T02:31:16;17.70;81.30
32524;DHT22;18965;52.242;20.886;2023-07-31T02:33:42;17.60;81.30
32524;DHT22;18965;52.242;20.886;2023-07-31T02:36:07;17.70;81.50
32524;DHT22;18965;52.242;20.886;2023-07-31T02:38:33;17.70;81.60
32524;DHT22;18965;52.242;20.886;2023-07-31T02:40:59;17.70;81.70
32524;DHT22;18965;52.242;20.886;2023-07-31T02:43:24;17.80;81.90
32524;DHT22;18965;52.242;20.886;2023-07-31T02:45:53;17.70;81.90
32524;DHT22;18965;52.242;20.886;2023-07-31T02:48:19;17.80;82.00
32524;DHT22;18965;52.242;20.886;2023-07-31T02:50:45;17.80;82.00
32524;DHT22;18965;52.242;20.886;2023-07-31T02:53:11;17.80;82.10
32524;DHT22;18965;52.242;20.886;2023-07-31T02:55:37;17.90;82.20
32524;DHT22;18965;52.242;20.886;2023-07-31T02:58:02;17.90;82.20
32524;DHT22;18965;52.242;20.886;2023-07-31T03:00:28;17.90;82.30
32524;DHT22;18965;52.242;20.886;2023-07-31T03:02:54;17.90;82.30
32524;DHT22;18965;52.242;20.886;2023-07-31T03:05:20;17.90;82.40
32524;DHT22;18965;52.242;20.886;2023-07-31T03:07:46;18.00;82.40
32524;DHT22;18965;52.242;20.886;2023-07-31T03:10:11;18.00;82.50
32524;DHT22;18965;52.242;20.886;2023-07-31T03:12:37;18.00;82.50
32524;DHT22;18965;52.242;20.886;2023-07-31T03:15:03;18.00;82.50
32524;DHT22;18965;52.242;20.886;2023-07-31T03:17:29;18.10;82.50
32524;DHT22;18965;52.242;20.886;2023-07-31T03:19:55;18.10;82.60
32524;DHT22;18965;52.242;20.886;2023-07-31T03:22:20;18.10;82.60
32524;DHT22;18965;52.242;20.886;2023-07-31T03:24:46;18.20;82.60
32524;DHT22;18965;52.242;20.886;2023-07-31T03:27:12;18.20;82.60
32524;DHT22;18965;52.242;20.886;2023-07-31T03:29:37;18.20;82.60
32524;DHT22;18965;52.242;20.886;2023-07-31T03:32:03;18.30;82.60
32524;DHT22;18965;52.242;20.886;2023-07-31T03:34:29;18.30;82.50
32524;DHT22;18965;52.242;20.886;2023-07-31T03:36:57;18.40;82.60
32524;DHT22;18965;52.242;20.886;2023-07-31T03:39:23;18.40;82.50
32524;DHT22;18965;52.242;20.886;2023-07-31T03:41:49;18.40;82.40
32524;DHT22;18965;52.242;20.886;2023-07-31T03:44:15;18.50;82.40
32524;DHT22;18965;52.242;20.886;2023-07-31T03:46:40;18.50;82.30
32524;DHT22;18965;52.242;20.886;2023-07-31T03:49:06;18.60;82.30
32524;DHT22;18965;52.242;20.886;2023-07-31T03:51:32;18.60;82.30
32524;DHT22;18965;52.242;20.886;2023-07-31T03:53:57;18.60;82.20
32524;DHT22;18965;52.242;20.886;2023-07-31T03:56:23;18.70;82.20
32524;DHT22;18965;52.242;20.886;2023-07-31T03:58:49;18.70;82.10
32524;DHT22;18965;52.242;20.886;2023-07-31T04:01:14;18.80;82.10
32524;DHT22;18965;52.242;20.886;2023-07-31T04:03:40;18.80;82.00
32524;DHT22;18965;52.242;20.886;2023-07-31T04:06:06;18.90;81.90
32524;DHT22;18965;52.242;20.886;2023-07-31T04:08:32;18.90;81.80
32524;DHT22;18965;52.242;20.886;2023-07-31T04:10:58;18.90;81.60
32524;DHT22;18965;52.242;20.886;2023-07-31T04:13:26;19.00;81.60
32524;DHT22;18965;52.242;20.886;2023-07-31T04:15:54;19.00;81.50
32524;DHT22;18965;52.242;20.886;2023-07-31T04:18:19;19.00;81.30
32524;DHT22;18965;52.242;20.886;2023-07-31T04:20:45;19.00;81.20
32524;DHT22;18965;52.242;20.886;2023-07-31T04:23:11;19.10;81.20
32524;DHT22;18965;52.242;20.886;2023-07-31T04:25:37;19.10;81.20
32524;DHT22;18965;52.242;20.886;2023-07-31T04:28:03;19.10;81.00
32524;DHT22;18965;52.242;20.886;2023-07-31T04:30:28;19.10;80.90
32524;DHT22;18965;52.242;20.886;2023-07-31T04:32:56;19.10;80.70
32524;DHT22;18965;52.242;20.886;2023-07-31T04:35:24;19.20;80.70
32524;DHT22;18965;52.242;20.886;2023-07-31T04:37:51;19.30;80.60
32524;DHT22;18965;52.242;20.886;2023-07-31T04:40:16;19.30;80.50
32524;DHT22;18965;52.242;20.886;2023-07-31T04:42:42;19.40;80.40
32524;DHT22;18965;52.242;20.886;2023-07-31T04:45:09;19.40;80.30
32524;DHT22;18965;52.242;20.886;2023-07-31T04:47:35;19.40;80.20
32524;DHT22;18965;52.242;20.886;2023-07-31T04:50:00;19.40;80.10
32524;DHT22;18965;52.242;20.886;2023-07-31T04:52:26;19.50;80.00
32524;DHT22;18965;52.242;20.886;2023-07-31T04:54:52;19.50;79.90
32524;DHT22;18965;52.242;20.886;2023-07-31T04:57:17;19.50;79.80
32524;DHT22;18965;52.242;20.886;2023-07-31T04:59:43;19.60;79.70
32524;DHT22;18965;52.242;20.886;2023-07-31T05:02:11;19.60;79.60
32524;DHT22;18965;52.242;20.886;2023-07-31T05:04:37;19.60;79.30
32524;DHT22;18965;52.242;20.886;2023-07-31T05:07:02;19.70;79.00
32524;DHT22;18965;52.242;20.886;2023-07-31T05:09:28;19.70;78.90
32524;DHT22;18965;52.242;20.886;2023-07-31T05:11:54;19.70;78.70
32524;DHT22;18965;52.242;20.886;2023-07-31T05:14:19;19.80;78.60
32524;DHT22;18965;52.242;20.886;2023-07-31T05:16:45;19.70;78.50
32524;DHT22;18965;52.242;20.886;2023-07-31T05:19:11;19.80;78.40
32524;DHT22;18965;52.242;20.886;2023-07-31T05:21:37;19.80;78.30
32524;DHT22;18965;52.242;20.886;2023-07-31T05:24:05;19.90;78.20
32524;DHT22;18965;52.242;20.886;2023-07-31T05:26:31;19.90;78.00
32524;DHT22;18965;52.242;20.886;2023-07-31T05:28:57;19.90;77.80
32524;DHT22;18965;52.242;20.886;2023-07-31T05:31:23;20.00;77.70
32524;DHT22;18965;52.242;20.886;2023-07-31T05:33:50;20.00;77.40
32524;DHT22;18965;52.242;20.886;2023-07-31T05:36:17;20.00;77.10
32524;DHT22;18965;52.242;20.886;2023-07-31T05:38:43;20.00;77.10
32524;DHT22;18965;52.242;20.886;2023-07-31T05:41:11;20.10;77.00
32524;DHT22;18965;52.242;20.886;2023-07-31T05:43:37;20.10;76.80
32524;DHT22;18965;52.242;20.886;2023-07-31T05:46:03;20.20;76.80
32524;DHT22;18965;52.242;20.886;2023-07-31T05:48:31;20.20;76.50
32524;DHT22;18965;52.242;20.886;2023-07-31T05:50:57;20.20;76.50
32524;DHT22;18965;52.242;20.886;2023-07-31T05:53:23;20.20;76.30
32524;DHT22;18965;52.242;20.886;2023-07-31T05:55:54;20.30;76.30
32524;DHT22;18965;52.242;20.886;2023-07-31T05:58:20;20.30;76.00
32524;DHT22;18965;52.242;20.886;2023-07-31T06:00:45;20.40;75.60
32524;DHT22;18965;52.242;20.886;2023-07-31T06:03:11;20.50;75.20
32524;DHT22;18965;52.242;20.886;2023-07-31T06:05:37;20.50;74.90
32524;DHT22;18965;52.242;20.886;2023-07-31T06:08:05;20.50;74.70
32524;DHT22;18965;52.242;20.886;2023-07-31T06:10:31;20.50;74.40
32524;DHT22;18965;52.242;20.886;2023-07-31T06:12:57;20.50;74.30
32524;DHT22;18965;52.242;20.886;2023-07-31T06:15:22;20.50;74.20
32524;DHT22;18965;52.242;20.886;2023-07-31T06:17:48;20.50;74.30
32524;DHT22;18965;52.242;20.886;2023-07-31T06:20:14;20.50;74.40
32524;DHT22;18965;52.242;20.886;2023-07-31T06:22:40;20.50;74.50
32524;DHT22;18965;52.242;20.886;2023-07-31T06:25:06;20.50;74.70
32524;DHT22;18965;52.242;20.886;2023-07-31T06:27:31;20.50;74.90
32524;DHT22;18965;52.242;20.886;2023-07-31T06:29:57;20.40;74.80
32524;DHT22;18965;52.242;20.886;2023-07-31T06:32:23;20.40;74.70
32524;DHT22;18965;52.242;20.886;2023-07-31T06:34:51;20.30;74.80
32524;DHT22;18965;52.242;20.886;2023-07-31T06:37:17;20.40;75.00
32524;DHT22;18965;52.242;20.886;2023-07-31T06:39:43;20.40;75.00
32524;DHT22;18965;52.242;20.886;2023-07-31T06:42:09;20.30;75.00
32524;DHT22;18965;52.242;20.886;2023-07-31T06:44:35;20.30;75.20
32524;DHT22;18965;52.242;20.886;2023-07-31T06:47:00;20.30;75.30
32524;DHT22;18965;52.242;20.886;2023-07-31T06:49:26;20.40;75.30
32524;DHT22;18965;52.242;20.886;2023-07-31T06:51:52;20.50;75.30
32524;DHT22;18965;52.242;20.886;2023-07-31T06:54:17;20.60;75.00
32524;DHT22;18965;52.242;20.886;2023-07-31T06:56:43;20.70;74.80
32524;DHT22;18965;52.242;20.886;2023-07-31T06:59:09;20.80;74.70
32524;DHT22;18965;52.242;20.886;2023-07-31T07:01:34;20.90;74.30
32524;DHT22;18965;52.242;20.886;2023-07-31T07:04:01;21.00;74.20
32524;DHT22;18965;52.242;20.886;2023-07-31T07:06:27;21.10;74.10
32524;DHT22;18965;52.242;20.886;2023-07-31T07:08:53;21.20;73.80
32524;DHT22;18965;52.242;20.886;2023-07-31T07:11:19;21.40;74.30
32524;DHT22;18965;52.242;20.886;2023-07-31T07:13:44;21.60;73.30
32524;DHT22;18965;52.242;20.886;2023-07-31T07:16:10;21.80;73.00
32524;DHT22;18965;52.242;20.886;2023-07-31T07:18:36;22.10;72.60
32524;DHT22;18965;52.242;20.886;2023-07-31T07:21:02;22.40;72.10
32524;DHT22;18965;52.242;20.886;2023-07-31T07:23:28;22.50;71.30
32524;DHT22;18965;52.242;20.886;2023-07-31T07:25:54;22.70;70.60
32524;DHT22;18965;52.242;20.886;2023-07-31T07:28:20;22.90;70.00
32524;DHT22;18965;52.242;20.886;2023-07-31T07:30:51;23.10;69.10
32524;DHT22;18965;52.242;20.886;2023-07-31T07:33:20;23.20;68.60
32524;DHT22;18965;52.242;20.886;2023-07-31T07:35:46;23.30;68.10
32524;DHT22;18965;52.242;20.886;2023-07-31T07:38:13;23.40;67.50
32524;DHT22;18965;52.242;20.886;2023-07-31T07:40:39;23.50;67.30
32524;DHT22;18965;52.242;20.886;2023-07-31T07:43:05;23.60;66.80
32524;DHT22;18965;52.242;20.886;2023-07-31T07:45:31;23.70;66.50
32524;DHT22;18965;52.242;20.886;2023-07-31T07:47:57;23.80;66.10
32524;DHT22;18965;52.242;20.886;2023-07-31T07:50:26;23.90;65.80
32524;DHT22;18965;52.242;20.886;2023-07-31T07:52:52;24.00;65.50
32524;DHT22;18965;52.242;20.886;2023-07-31T07:55:18;24.10;65.30
32524;DHT22;18965;52.242;20.886;2023-07-31T07:57:43;24.20;64.80
32524;DHT22;18965;52.242;20.886;2023-07-31T08:00:11;24.20;64.70
32524;DHT22;18965;52.242;20.886;2023-07-31T08:02:40;24.30;64.30
32524;DHT22;18965;52.242;20.886;2023-07-31T08:05:09;24.40;64.10
32524;DHT22;18965;52.242;20.886;2023-07-31T08:07:35;24.50;63.70
32524;DHT22;18965;52.242;20.886;2023-07-31T08:10:01;24.60;63.20
32524;DHT22;18965;52.242;20.886;2023-07-31T08:12:26;24.60;62.90
32524;DHT22;18965;52.242;20.886;2023-07-31T08:14:52;24.70;62.70
32524;DHT22;18965;52.242;20.886;2023-07-31T08:17:18;24.80;61.90
32524;DHT22;18965;52.242;20.886;2023-07-31T08:19:43;24.80;61.60
32524;DHT22;18965;52.242;20.886;2023-07-31T08:22:13;24.80;61.00
32524;DHT22;18965;52.242;20.886;2023-07-31T08:24:48;24.80;60.90
32524;DHT22;18965;52.242;20.886;2023-07-31T08:27:14;24.80;60.80
32524;DHT22;18965;52.242;20.886;2023-07-31T08:29:40;24.90;60.80
32524;DHT22;18965;52.242;20.886;2023-07-31T08:32:06;24.90;60.70
32524;DHT22;18965;52.242;20.886;2023-07-31T08:34:31;25.00;60.50
32524;DHT22;18965;52.242;20.886;2023-07-31T08:37:00;25.10;60.50
32524;DHT22;18965;52.242;20.886;2023-07-31T08:39:26;25.10;60.10
32524;DHT22;18965;52.242;20.886;2023-07-31T08:41:58;25.20;59.70
32524;DHT22;18965;52.242;20.886;2023-07-31T08:44:23;25.20;59.20
32524;DHT22;18965;52.242;20.886;2023-07-31T08:46:50;25.20;58.90
32524;DHT22;18965;52.242;20.886;2023-07-31T08:49:19;25.20;58.50
32524;DHT22;18965;52.242;20.886;2023-07-31T08:51:46;25.20;58.50
32524;DHT22;18965;52.242;20.886;2023-07-31T08:54:14;25.20;58.50
32524;DHT22;18965;52.242;20.886;2023-07-31T08:56:40;25.20;58.40
32524;DHT22;18965;52.242;20.886;2023-07-31T08:59:06;25.10;58.10
32524;DHT22;18965;52.242;20.886;2023-07-31T09:01:37;25.20;58.10
32524;DHT22;18965;52.242;20.886;2023-07-31T09:04:09;25.10;57.70
32524;DHT22;18965;52.242;20.886;2023-07-31T09:06:36;25.10;57.70
32524;DHT22;18965;52.242;20.886;2023-07-31T09:09:02;25.20;57.60
32524;DHT22;18965;52.242;20.886;2023-07-31T09:11:28;25.20;57.20
32524;DHT22;18965;52.242;20.886;2023-07-31T09:13:57;25.20;57.10
32524;DHT22;18965;52.242;20.886;2023-07-31T09:16:29;25.30;57.40
32524;DHT22;18965;52.242;20.886;2023-07-31T09:18:57;25.30;56.90
32524;DHT22;18965;52.242;20.886;2023-07-31T09:21:24;25.30;57.00
32524;DHT22;18965;52.242;20.886;2023-07-31T09:23:55;25.40;56.80
32524;DHT22;18965;52.242;20.886;2023-07-31T09:26:35;25.50;56.80
32524;DHT22;18965;52.242;20.886;2023-07-31T09:29:04;25.50;56.70
32524;DHT22;18965;52.242;20.886;2023-07-31T09:31:39;25.60;56.30
32524;DHT22;18965;52.242;20.886;2023-07-31T09:34:06;25.70;55.80
32524;DHT22;18965;52.242;20.886;2023-07-31T09:36:32;25.80;55.50
32524;DHT22;18965;52.242;20.886;2023-07-31T09:39:02;25.90;55.30
32524;DHT22;18965;52.242;20.886;2023-07-31T09:41:30;25.90;55.30
32524;DHT22;18965;52.242;20.886;2023-07-31T09:43:56;26.00;54.60
32524;DHT22;18965;52.242;20.886;2023-07-31T09:46:22;26.00;54.30
32524;DHT22;18965;52.242;20.886;2023-07-31T09:48:47;26.10;54.30
32524;DHT22;18965;52.242;20.886;2023-07-31T09:51:13;26.10;54.10
32524;DHT22;18965;52.242;20.886;2023-07-31T09:53:39;26.10;53.90
32524;DHT22;18965;52.242;20.886;2023-07-31T09:56:05;26.20;53.50
32524;DHT22;18965;52.242;20.886;2023-07-31T09:58:34;26.30;53.30
32524;DHT22;18965;52.242;20.886;2023-07-31T10:01:04;26.30;52.80
32524;DHT22;18965;52.242;20.886;2023-07-31T10:03:32;26.40;52.80
32524;DHT22;18965;52.242;20.886;2023-07-31T10:05:58;26.50;52.80
32524;DHT22;18965;52.242;20.886;2023-07-31T10:08:30;26.60;52.30
32524;DHT22;18965;52.242;20.886;2023-07-31T10:11:02;26.60;51.80
32524;DHT22;18965;52.242;20.886;2023-07-31T10:13:29;26.60;51.60
32524;DHT22;18965;52.242;20.886;2023-07-31T10:15:59;26.60;51.20
32524;DHT22;18965;52.242;20.886;2023-07-31T10:18:26;26.60;50.60
32524;DHT22;18965;52.242;20.886;2023-07-31T10:20:53;26.60;50.00
32524;DHT22;18965;52.242;20.886;2023-07-31T10:23:20;26.60;50.00
32524;DHT22;18965;52.242;20.886;2023-07-31T10:25:46;26.60;50.00
32524;DHT22;18965;52.242;20.886;2023-07-31T10:28:13;26.70;50.00
32524;DHT22;18965;52.242;20.886;2023-07-31T10:30:39;26.70;49.90
32524;DHT22;18965;52.242;20.886;2023-07-31T10:33:07;26.70;49.40
32524;DHT22;18965;52.242;20.886;2023-07-31T10:35:33;26.70;49.10
32524;DHT22;18965;52.242;20.886;2023-07-31T10:38:11;26.70;48.60
32524;DHT22;18965;52.242;20.886;2023-07-31T10:40:37;26.70;47.90
32524;DHT22;18965;52.242;20.886;2023-07-31T10:43:24;26.70;48.40
32524;DHT22;18965;52.242;20.886;2023-07-31T10:45:51;26.80;48.20
32524;DHT22;18965;52.242;20.886;2023-07-31T10:48:17;26.80;48.30
32524;DHT22;18965;52.242;20.886;2023-07-31T10:50:59;26.80;48.30
32524;DHT22;18965;52.242;20.886;2023-07-31T10:53:32;26.90;47.80
32524;DHT22;18965;52.242;20.886;2023-07-31T10:56:03;26.90;47.40
32524;DHT22;18965;52.242;20.886;2023-07-31T10:58:30;26.90;47.80
32524;DHT22;18965;52.242;20.886;2023-07-31T11:01:02;26.90;47.60
32524;DHT22;18965;52.242;20.886;2023-07-31T11:03:48;27.00;47.50
32524;DHT22;18965;52.242;20.886;2023-07-31T11:06:15;27.00;47.60
32524;DHT22;18965;52.242;20.886;2023-07-31T11:08:49;27.10;47.60
32524;DHT22;18965;52.242;20.886;2023-07-31T11:11:17;27.10;47.30
32524;DHT22;18965;52.242;20.886;2023-07-31T11:13:44;27.20;47.70
32524;DHT22;18965;52.242;20.886;2023-07-31T11:16:14;27.20;47.20
32524;DHT22;18965;52.242;20.886;2023-07-31T11:18:40;27.20;47.10
32524;DHT22;18965;52.242;20.886;2023-07-31T11:21:07;27.30;47.30
32524;DHT22;18965;52.242;20.886;2023-07-31T11:23:33;27.30;46.50
32524;DHT22;18965;52.242;20.886;2023-07-31T11:25:59;27.30;46.40
32524;DHT22;18965;52.242;20.886;2023-07-31T11:28:25;27.40;46.60
32524;DHT22;18965;52.242;20.886;2023-07-31T11:30:51;27.40;46.50
32524;DHT22;18965;52.242;20.886;2023-07-31T11:33:17;27.40;46.30
32524;DHT22;18965;52.242;20.886;2023-07-31T11:35:47;27.50;46.20
32524;DHT22;18965;52.242;20.886;2023-07-31T11:38:25;27.50;45.90
32524;DHT22;18965;52.242;20.886;2023-07-31T11:40:57;27.50;45.50
32524;DHT22;18965;52.242;20.886;2023-07-31T11:43:23;27.50;45.70
32524;DHT22;18965;52.242;20.886;2023-07-31T11:45:51;27.50;45.20
32524;DHT22;18965;52.242;20.886;2023-07-31T11:48:24;27.50;45.60
32524;DHT22;18965;52.242;20.886;2023-07-31T11:50:52;27.50;45.40
32524;DHT22;18965;52.242;20.886;2023-07-31T11:53:27;27.50;45.50
32524;DHT22;18965;52.242;20.886;2023-07-31T11:55:54;27.50;45.50
32524;DHT22;18965;52.242;20.886;2023-07-31T11:58:21;27.40;45.60
32524;DHT22;18965;52.242;20.886;2023-07-31T12:00:47;27.50;46.10
32524;DHT22;18965;52.242;20.886;2023-07-31T12:03:14;27.40;46.20
32524;DHT22;18965;52.242;20.886;2023-07-31T12:05:42;27.40;46.40
32524;DHT22;18965;52.242;20.886;2023-07-31T12:08:11;27.50;46.00
32524;DHT22;18965;52.242;20.886;2023-07-31T12:10:38;27.50;46.10
32524;DHT22;18965;52.242;20.886;2023-07-31T12:13:12;27.50;46.00
32524;DHT22;18965;52.242;20.886;2023-07-31T12:15:44;27.40;45.80
32524;DHT22;18965;52.242;20.886;2023-07-31T12:18:15;27.50;45.90
32524;DHT22;18965;52.242;20.886;2023-07-31T12:20:49;27.40;46.00
32524;DHT22;18965;52.242;20.886;2023-07-31T12:23:24;27.40;46.10
32524;DHT22;18965;52.242;20.886;2023-07-31T12:26:16;27.30;45.80
32524;DHT22;18965;52.242;20.886;2023-07-31T12:28:50;27.30;46.10
32524;DHT22;18965;52.242;20.886;2023-07-31T12:31:27;27.30;46.50
32524;DHT22;18965;52.242;20.886;2023-07-31T12:33:53;27.30;46.60
32524;DHT22;18965;52.242;20.886;2023-07-31T12:36:22;27.30;46.70
32524;DHT22;18965;52.242;20.886;2023-07-31T12:38:50;27.30;46.40
32524;DHT22;18965;52.242;20.886;2023-07-31T12:41:16;27.20;46.50
32524;DHT22;18965;52.242;20.886;2023-07-31T12:43:43;27.20;46.80
32524;DHT22;18965;52.242;20.886;2023-07-31T12:46:09;27.10;46.60
32524;DHT22;18965;52.242;20.886;2023-07-31T12:48:37;27.10;46.50
32524;DHT22;18965;52.242;20.886;2023-07-31T12:51:09;27.20;46.90
32524;DHT22;18965;52.242;20.886;2023-07-31T12:53:35;27.20;46.90
32524;DHT22;18965;52.242;20.886;2023-07-31T12:56:01;27.30;47.30
32524;DHT22;18965;52.242;20.886;2023-07-31T12:58:28;27.30;46.80
32524;DHT22;18965;52.242;20.886;2023-07-31T13:00:54;27.20;46.50
32524;DHT22;18965;52.242;20.886;2023-07-31T13:03:19;27.20;46.50
32524;DHT22;18965;52.242;20.886;2023-07-31T13:05:45;27.10;46.50
32524;DHT22;18965;52.242;20.886;2023-07-31T13:08:13;27.10;46.50
32524;DHT22;18965;52.242;20.886;2023-07-31T13:10:42;27.10;45.80
32524;DHT22;18965;52.242;20.886;2023-07-31T13:13:08;27.10;45.70
32524;DHT22;18965;52.242;20.886;2023-07-31T13:15:36;27.10;46.20
32524;DHT22;18965;52.242;20.886;2023-07-31T13:18:02;27.00;46.40
32524;DHT22;18965;52.242;20.886;2023-07-31T13:20:28;27.00;46.30
32524;DHT22;18965;52.242;20.886;2023-07-31T13:22:54;26.90;45.60
32524;DHT22;18965;52.242;20.886;2023-07-31T13:25:19;26.80;44.90
32524;DHT22;18965;52.242;20.886;2023-07-31T13:27:45;26.70;44.70
32524;DHT22;18965;52.242;20.886;2023-07-31T13:30:11;26.60;44.30
32524;DHT22;18965;52.242;20.886;2023-07-31T13:32:37;26.50;45.20
32524;DHT22;18965;52.242;20.886;2023-07-31T13:35:06;26.40;45.00
32524;DHT22;18965;52.242;20.886;2023-07-31T13:37:32;26.30;44.90
32524;DHT22;18965;52.242;20.886;2023-07-31T13:39:58;26.40;45.10
32524;DHT22;18965;52.242;20.886;2023-07-31T13:42:24;26.40;44.70
32524;DHT22;18965;52.242;20.886;2023-07-31T13:44:49;26.50;44.90
32524;DHT22;18965;52.242;20.886;2023-07-31T13:47:15;26.60;44.70
32524;DHT22;18965;52.242;20.886;2023-07-31T13:49:41;26.60;44.80
32524;DHT22;18965;52.242;20.886;2023-07-31T13:52:08;26.60;44.60
32524;DHT22;18965;52.242;20.886;2023-07-31T13:54:34;26.60;44.40
32524;DHT22;18965;52.242;20.886;2023-07-31T13:57:00;26.60;44.50
32524;DHT22;18965;52.242;20.886;2023-07-31T13:59:26;26.50;44.60
32524;DHT22;18965;52.242;20.886;2023-07-31T14:01:51;26.50;44.90
32524;DHT22;18965;52.242;20.886;2023-07-31T14:04:23;26.50;45.10
32524;DHT22;18965;52.242;20.886;2023-07-31T14:06:49;26.40;45.10
32524;DHT22;18965;52.242;20.886;2023-07-31T14:09:16;26.30;44.90
32524;DHT22;18965;52.242;20.886;2023-07-31T14:11:42;26.30;44.90
32524;DHT22;18965;52.242;20.886;2023-07-31T14:14:09;26.20;45.20
32524;DHT22;18965;52.242;20.886;2023-07-31T14:16:35;26.10;45.40
32524;DHT22;18965;52.242;20.886;2023-07-31T14:19:04;26.10;45.70
32524;DHT22;18965;52.242;20.886;2023-07-31T14:21:29;26.10;45.90
32524;DHT22;18965;52.242;20.886;2023-07-31T14:23:55;26.10;45.90
32524;DHT22;18965;52.242;20.886;2023-07-31T14:26:21;26.10;46.00
32524;DHT22;18965;52.242;20.886;2023-07-31T14:28:47;26.20;45.90
32524;DHT22;18965;52.242;20.886;2023-07-31T14:31:13;26.20;45.90
32524;DHT22;18965;52.242;20.886;2023-07-31T14:33:41;26.30;45.90
32524;DHT22;18965;52.242;20.886;2023-07-31T14:36:07;26.30;45.70
32524;DHT22;18965;52.242;20.886;2023-07-31T14:38:33;26.30;45.90
32524;DHT22;18965;52.242;20.886;2023-07-31T14:40:59;26.30;45.80
32524;DHT22;18965;52.242;20.886;2023-07-31T14:43:24;26.40;45.90
32524;DHT22;18965;52.242;20.886;2023-07-31T14:45:50;26.50;46.20
32524;DHT22;18965;52.242;20.886;2023-07-31T14:48:17;26.60;46.40
32524;DHT22;18965;52.242;20.886;2023-07-31T14:50:42;26.70;46.40
32524;DHT22;18965;52.242;20.886;2023-07-31T14:53:08;26.70;46.10
32524;DHT22;18965;52.242;20.886;2023-07-31T14:55:37;26.60;46.00
32524;DHT22;18965;52.242;20.886;2023-07-31T14:58:02;26.60;46.10
32524;DHT22;18965;52.242;20.886;2023-07-31T15:00:28;26.40;46.10
32524;DHT22;18965;52.242;20.886;2023-07-31T15:02:54;26.30;46.40
32524;DHT22;18965;52.242;20.886;2023-07-31T15:05:20;26.20;46.50
32524;DHT22;18965;52.242;20.886;2023-07-31T15:07:45;26.10;46.60
32524;DHT22;18965;52.242;20.886;2023-07-31T15:10:11;26.00;46.90
32524;DHT22;18965;52.242;20.886;2023-07-31T15:12:37;25.90;47.20
32524;DHT22;18965;52.242;20.886;2023-07-31T15:15:07;25.80;47.30
32524;DHT22;18965;52.242;20.886;2023-07-31T15:17:33;25.80;47.40
32524;DHT22;18965;52.242;20.886;2023-07-31T15:20:01;25.70;47.50
32524;DHT22;18965;52.242;20.886;2023-07-31T15:22:29;25.70;47.80